Time;durP1;ratioP1;P1;durP2;ratioP2;P2;SDS_P1;SDS_P2;PMS_P1;PMS_P2;Temp;Humidity;BMP_temperature;BMP_pressure;BME280_temperature;BME280_humidity;BME280_pressure;Samples;Min_cycle;Max_cycle;Signal;HPM_P1;HPM_P2
2023/08/23 04:17:46;;;;;;;;;2.00;2.00;;;;;;;;5025100;28;44812;-96
2023/08/23 04:20:32;;;;;;;;;1.67;1.67;;;;;;;;5028313;28;46577;-96
2023/08/23 04:23:01;;;;;;;;;2.00;2.00;;;;;;;;5024851;28;44877;-96
2023/08/23 04:25:34;;;;;;;;;1.00;1.00;;;;;;;;5026632;28;44919;-96
2023/08/23 04:31:20;;;;;;;;;2.00;2.00;;;;;;;;5014655;28;45708;-96
2023/08/23 04:34:23;;;;;;;;;2.00;2.00;;;;;;;;5026219;28;44886;-96
2023/08/23 04:37:11;;;;;;;;;;;;;;;;;;;;;
2023/08/23 04:40:08;;;;;;;;;3.00;3.00;;;;;;;;5028970;28;66249;-96
2023/08/23 04:43:04;;;;;;;;;;;;;;;;;;;;;
2023/08/23 06:41:14;;;;;;;;;2.67;2.67;;;;;;;;5393311;22;46730;-94
2023/08/23 06:43:41;;;;;;;;;3.00;3.00;;;;;;;;5012818;28;46229;-94
2023/08/23 06:46:06;;;;;;;;;1.00;1.00;;;;;;;;5020557;28;45292;-94
2023/08/23 06:48:31;;;;;;;;;2.33;2.00;;;;;;;;5001550;28;45382;-93
2023/08/23 06:51:00;;;;;;;;;1.67;1.67;;;;;;;;4995115;28;45447;-93
2023/08/23 06:53:25;;;;;;;;;1.33;1.33;;;;;;;;4981483;28;47401;-95
2023/08/23 07:06:38;;;;;;;;;2.00;2.00;;;;;;;;5638693;22;45731;-92
2023/08/23 07:15:19;;;;;;;;;1.00;1.00;;;;;;;;4926306;28;45585;-95
2023/08/23 07:17:44;;;;;;;;;1.67;1.67;;;;;;;;4998180;28;45474;-91
2023/08/23 07:22:47;;;;;;;;;1.00;1.00;;;;;;;;5649884;22;45930;-96
2023/08/23 07:25:12;;;;;;;;;2.00;2.00;;;;;;;;4993586;28;48105;-96
2023/08/23 07:27:37;;;;;;;;;1.00;1.00;;;;;;;;4992466;28;45673;-96
2023/08/23 07:30:03;;;;;;;;;2.00;2.00;;;;;;;;5003561;28;45486;-96
2023/08/23 07:32:39;;;;;;;;;0.67;0.67;;;;;;;;4997399;28;45217;-96
2023/08/23 07:35:04;;;;;;;;;2.33;2.33;;;;;;;;4981811;28;47287;-96
2023/08/23 07:37:30;;;;;;;;;1.00;1.00;;;;;;;;4979186;28;46115;-96
2023/08/23 07:39:55;;;;;;;;;1.00;1.00;;;;;;;;5003636;28;45294;-96
2023/08/23 07:42:21;;;;;;;;;16.33;16.00;;;;;;;;4984611;28;45534;-96
2023/08/23 07:44:48;;;;;;;;;8.33;8.33;;;;;;;;4983783;28;47167;-96
2023/08/23 07:47:16;;;;;;;;;4.33;4.33;;;;;;;;4974748;28;45795;-96
2023/08/23 07:49:42;;;;;;;;;1.00;1.00;;;;;;;;4980055;28;45245;-96
2023/08/23 07:52:07;;;;;;;;;1.00;1.00;;;;;;;;4991028;28;45492;-96
2023/08/23 07:54:32;;;;;;;;;5.00;2.00;;;;;;;;5002103;28;46091;-96
2023/08/23 07:56:57;;;;;;;;;2.00;2.00;;;;;;;;4985160;28;45373;-96
2023/08/23 07:59:23;;;;;;;;;2.00;2.00;;;;;;;;4993474;28;45237;-96
2023/08/23 08:01:48;;;;;;;;;3.00;3.00;;;;;;;;5002928;28;45537;-96
2023/08/23 08:04:13;;;;;;;;;8.00;8.00;;;;;;;;4993333;28;45254;-96
2023/08/23 08:06:39;;;;;;;;;13.00;13.00;;;;;;;;4991391;28;45281;-96
2023/08/23 08:09:04;;;;;;;;;4.00;4.00;;;;;;;;5004152;28;45195;-96
2023/08/23 08:11:30;;;;;;;;;3.00;3.00;;;;;;;;4986483;28;45266;-97
2023/08/23 08:13:55;;;;;;;;;2.00;2.00;;;;;;;;4987031;28;46295;-96
2023/08/23 08:16:23;;;;;;;;;2.00;2.00;;;;;;;;4969482;28;45299;-97
2023/08/23 08:18:48;;;;;;;;;1.00;1.00;;;;;;;;4983017;28;45432;-96
2023/08/23 08:21:14;;;;;;;;;1.00;1.00;;;;;;;;4989030;28;45611;-96
2023/08/23 08:23:41;;;;;;;;;1.00;1.00;;;;;;;;4976246;28;47317;-97
2023/08/23 08:26:07;;;;;;;;;1.00;1.00;;;;;;;;4970727;28;45183;-96
2023/08/23 08:28:32;;;;;;;;;1.00;1.00;;;;;;;;4988208;28;45302;-96
2023/08/23 08:30:58;;;;;;;;;0.67;0.67;;;;;;;;4985603;28;45522;-96
2023/08/23 08:33:25;;;;;;;;;1.00;1.00;;;;;;;;4999019;28;45410;-96
2023/08/23 08:35:53;;;;;;;;;1.33;1.33;;;;;;;;4975381;28;45726;-96
2023/08/23 08:38:19;;;;;;;;;0.00;0.00;;;;;;;;4998686;28;45234;-97
2023/08/23 08:40:47;;;;;;;;;0.33;0.33;;;;;;;;4983785;28;45554;-96
2023/08/23 08:43:13;;;;;;;;;0.00;0.00;;;;;;;;4985933;28;48383;-96
2023/08/23 08:45:38;;;;;;;;;1.00;1.00;;;;;;;;5004569;28;45221;-96
2023/08/23 08:48:04;;;;;;;;;1.00;0.67;;;;;;;;4975838;28;45263;-96
2023/08/23 08:50:30;;;;;;;;;0.67;0.67;;;;;;;;4986039;28;45259;-96
2023/08/23 08:52:58;;;;;;;;;1.00;1.00;;;;;;;;4999752;28;46285;-96
2023/08/23 08:55:24;;;;;;;;;3.00;3.00;;;;;;;;4992890;28;45408;-96
2023/08/23 08:57:53;;;;;;;;;1.33;1.33;;;;;;;;5011912;28;45301;-96
2023/08/23 09:00:21;;;;;;;;;2.33;2.33;;;;;;;;5004574;28;46412;-96
2023/08/23 09:02:51;;;;;;;;;1.33;1.33;;;;;;;;5002911;28;46950;-96
2023/08/23 09:05:17;;;;;;;;;2.33;2.33;;;;;;;;4981664;28;45273;-96
2023/08/23 09:07:42;;;;;;;;;1.00;1.00;;;;;;;;5006435;28;45272;-96
2023/08/23 09:10:08;;;;;;;;;1.67;1.67;;;;;;;;5002678;28;45483;-96
2023/08/23 09:12:42;;;;;;;;;2.00;2.00;;;;;;;;5001448;28;45296;-96
2023/08/23 09:15:08;;;;;;;;;1.00;1.00;;;;;;;;4990042;28;45500;-96
2023/08/23 09:17:34;;;;;;;;;1.00;1.00;;;;;;;;4994079;28;45212;-96
2023/08/23 09:19:59;;;;;;;;;0.33;0.33;;;;;;;;4981776;28;45410;-96
2023/08/23 09:22:25;;;;;;;;;2.00;2.00;;;;;;;;4995697;28;46681;-96
2023/08/23 09:24:50;;;;;;;;;0.00;0.00;;;;;;;;4973540;28;45742;-96
2023/08/23 09:27:16;;;;;;;;;0.67;0.67;;;;;;;;4989900;28;45199;-96
2023/08/23 09:29:42;;;;;;;;;1.00;1.00;;;;;;;;5001911;28;45597;-96
2023/08/23 09:32:08;;;;;;;;;1.00;1.00;;;;;;;;4984176;28;47321;-96
2023/08/23 09:34:33;;;;;;;;;1.00;1.00;;;;;;;;4982591;28;45330;-96
2023/08/23 09:37:08;;;;;;;;;1.00;1.00;;;;;;;;5004112;28;45353;-96
2023/08/23 09:39:35;;;;;;;;;1.00;1.00;;;;;;;;4985435;28;46140;-96
2023/08/23 09:42:04;;;;;;;;;2.00;2.00;;;;;;;;4997486;28;45407;-96
2023/08/23 09:44:30;;;;;;;;;2.00;2.00;;;;;;;;5002199;28;45255;-96
2023/08/23 09:46:58;;;;;;;;;2.00;2.00;;;;;;;;4976624;28;45353;-96
2023/08/23 09:49:26;;;;;;;;;1.00;1.00;;;;;;;;5003005;28;45399;-96
2023/08/23 09:51:54;;;;;;;;;1.67;1.67;;;;;;;;5002677;28;45408;-96
2023/08/23 09:54:31;;;;;;;;;2.00;2.00;;;;;;;;4982839;28;45347;-96
2023/08/23 09:56:57;;;;;;;;;1.00;1.00;;;;;;;;5006413;28;45499;-96
2023/08/23 09:59:41;;;;;;;;;2.00;2.00;;;;;;;;4977838;28;45548;-96
2023/08/23 10:02:08;;;;;;;;;2.00;2.00;;;;;;;;4981201;28;47442;-96
2023/08/23 10:04:34;;;;;;;;;2.00;2.00;;;;;;;;4976302;28;45380;-96
2023/08/23 10:07:04;;;;;;;;;1.00;1.00;;;;;;;;5003777;28;45436;-96
2023/08/23 10:09:32;;;;;;;;;1.00;1.00;;;;;;;;4988067;28;45475;-96
2023/08/23 10:11:57;;;;;;;;;1.67;1.67;;;;;;;;5001803;28;45443;-96
2023/08/23 10:14:27;;;;;;;;;1.33;1.33;;;;;;;;5002345;28;45348;-96
2023/08/23 10:16:53;;;;;;;;;0.67;0.67;;;;;;;;5002771;28;45262;-96
2023/08/23 10:19:19;;;;;;;;;3.00;1.00;;;;;;;;4984364;28;45539;-96
2023/08/23 10:21:44;;;;;;;;;1.33;1.33;;;;;;;;5002326;28;45385;-96
2023/08/23 10:24:11;;;;;;;;;1.00;1.00;;;;;;;;5000575;28;45461;-96
2023/08/23 10:26:46;;;;;;;;;0.00;0.00;;;;;;;;4983836;28;45717;-96
2023/08/23 10:29:11;;;;;;;;;1.00;1.00;;;;;;;;5000875;28;45660;-96
2023/08/23 10:31:36;;;;;;;;;1.00;1.00;;;;;;;;5002138;28;45391;-96
2023/08/23 10:34:02;;;;;;;;;1.00;1.00;;;;;;;;4998854;28;45470;-96
2023/08/23 10:36:33;;;;;;;;;1.00;1.00;;;;;;;;4983755;28;45440;-96
2023/08/23 10:38:58;;;;;;;;;1.00;1.00;;;;;;;;4973606;28;45273;-96
2023/08/23 10:41:26;;;;;;;;;1.00;1.00;;;;;;;;4978208;28;46642;-96
2023/08/23 10:43:54;;;;;;;;;1.00;1.00;;;;;;;;4998044;28;45431;-96
2023/08/23 10:46:21;;;;;;;;;1.00;1.00;;;;;;;;4971495;28;45551;-96
2023/08/23 10:48:49;;;;;;;;;1.67;1.67;;;;;;;;4992394;28;45182;-96
2023/08/23 10:51:18;;;;;;;;;1.33;1.33;;;;;;;;5000213;28;45985;-96
2023/08/23 10:54:08;;;;;;;;;1.33;1.33;;;;;;;;4993628;28;45443;-95
2023/08/23 10:56:34;;;;;;;;;1.00;1.00;;;;;;;;4983393;28;45400;-96
2023/08/23 10:59:02;;;;;;;;;1.00;1.00;;;;;;;;5001864;28;45311;-96
2023/08/23 11:01:28;;;;;;;;;1.00;1.00;;;;;;;;4979370;28;47688;-96
2023/08/23 11:03:54;;;;;;;;;0.00;0.00;;;;;;;;4983215;28;45471;-96
2023/08/23 11:06:20;;;;;;;;;2.00;2.00;;;;;;;;4984353;28;45383;-96
2023/08/23 11:08:45;;;;;;;;;2.00;2.00;;;;;;;;5002931;28;45404;-96
2023/08/23 11:11:11;;;;;;;;;1.67;1.67;;;;;;;;5009683;28;45459;-96
2023/08/23 11:13:36;;;;;;;;;1.67;1.67;;;;;;;;4994188;28;45939;-96
2023/08/23 11:16:02;;;;;;;;;1.00;1.00;;;;;;;;4998041;28;45392;-96
2023/08/23 11:18:27;;;;;;;;;1.67;1.67;;;;;;;;4998345;28;45427;-96
2023/08/23 11:20:53;;;;;;;;;3.00;2.00;;;;;;;;4997498;28;45429;-96
2023/08/23 11:23:19;;;;;;;;;1.00;1.00;;;;;;;;4983761;28;45349;-96
2023/08/23 11:25:45;;;;;;;;;1.33;1.33;;;;;;;;4980382;28;45374;-96
2023/08/23 11:28:15;;;;;;;;;2.00;2.00;;;;;;;;4988971;28;45381;-91
2023/08/23 11:45:53;;;;;;;;;1.00;1.00;;;;;;;;4999795;28;45344;-94
2023/08/23 11:48:18;;;;;;;;;1.00;1.00;;;;;;;;4993894;28;45452;-95
2023/08/23 11:50:44;;;;;;;;;1.00;1.00;;;;;;;;4987431;28;45237;-96
2023/08/23 11:53:11;;;;;;;;;0.00;0.00;;;;;;;;5001903;28;46029;-96
2023/08/23 11:55:37;;;;;;;;;1.00;1.00;;;;;;;;4997990;28;45491;-96
2023/08/23 11:58:02;;;;;;;;;1.00;1.00;;;;;;;;5005268;28;45427;-96
2023/08/23 12:00:27;;;;;;;;;1.00;1.00;;;;;;;;4981493;28;46281;-96
2023/08/23 12:02:53;;;;;;;;;0.00;0.00;;;;;;;;4998846;28;45631;-96
2023/08/23 12:05:19;;;;;;;;;1.00;1.00;;;;;;;;5000681;28;45459;-96
2023/08/23 12:07:47;;;;;;;;;1.00;1.00;;;;;;;;4990721;28;45291;-96
2023/08/23 12:10:12;;;;;;;;;1.00;1.00;;;;;;;;4993001;28;45338;-96
2023/08/23 12:12:38;;;;;;;;;0.00;0.00;;;;;;;;4999545;28;46465;-96
2023/08/23 12:15:04;;;;;;;;;0.00;0.00;;;;;;;;4978793;28;45558;-96
2023/08/23 12:17:29;;;;;;;;;0.00;0.00;;;;;;;;5007269;28;45428;-96
2023/08/23 12:19:54;;;;;;;;;1.00;1.00;;;;;;;;5004677;28;45408;-96
2023/08/23 12:22:20;;;;;;;;;0.00;0.00;;;;;;;;4994851;28;45343;-96
2023/08/23 12:24:45;;;;;;;;;0.00;0.00;;;;;;;;4980564;28;45416;-96
2023/08/23 12:27:10;;;;;;;;;0.00;0.00;;;;;;;;5001662;28;45371;-96
2023/08/23 12:29:37;;;;;;;;;1.00;1.00;;;;;;;;4984876;28;45293;-96
2023/08/23 12:32:03;;;;;;;;;0.00;0.00;;;;;;;;4983027;28;47019;-96
2023/08/23 12:34:29;;;;;;;;;1.00;1.00;;;;;;;;5000973;28;45281;-95
2023/08/23 12:36:54;;;;;;;;;1.00;1.00;;;;;;;;5004041;28;45316;-94
2023/08/23 12:39:19;;;;;;;;;1.00;1.00;;;;;;;;5002243;28;45486;-95
2023/08/23 12:41:45;;;;;;;;;2.00;2.00;;;;;;;;5003315;28;46018;-96
2023/08/23 12:44:11;;;;;;;;;0.33;0.33;;;;;;;;5002532;28;45365;-96
2023/08/23 12:46:36;;;;;;;;;0.00;0.00;;;;;;;;4983787;28;45274;-95
2023/08/23 12:49:02;;;;;;;;;1.33;1.00;;;;;;;;5004402;28;45502;-96
2023/08/23 12:51:28;;;;;;;;;2.00;2.00;;;;;;;;5003145;28;45483;-96
2023/08/23 12:53:53;;;;;;;;;1.00;1.00;;;;;;;;4997543;28;45131;-95
2023/08/23 12:56:18;;;;;;;;;1.00;1.00;;;;;;;;5000543;28;45416;-96
2023/08/23 12:58:44;;;;;;;;;0.67;0.67;;;;;;;;5009428;28;45453;-96
2023/08/23 13:01:09;;;;;;;;;1.00;1.00;;;;;;;;4984095;28;48074;-95
2023/08/23 13:03:34;;;;;;;;;1.00;1.00;;;;;;;;5001383;28;45435;-96
2023/08/23 13:06:00;;;;;;;;;1.00;1.00;;;;;;;;4983161;28;45477;-96
2023/08/23 13:08:25;;;;;;;;;1.00;1.00;;;;;;;;4983057;28;45522;-95
2023/08/23 13:10:51;;;;;;;;;2.00;2.00;;;;;;;;5003240;28;45407;-96
2023/08/23 13:13:16;;;;;;;;;1.00;1.00;;;;;;;;5002673;28;45527;-96
2023/08/23 13:15:41;;;;;;;;;1.00;1.00;;;;;;;;4980172;28;45662;-96
2023/08/23 13:18:07;;;;;;;;;0.67;0.67;;;;;;;;4997882;28;45439;-96
2023/08/23 13:20:32;;;;;;;;;1.00;1.00;;;;;;;;5001024;28;45336;-96
2023/08/23 13:22:57;;;;;;;;;1.00;1.00;;;;;;;;5002007;28;45490;-96
2023/08/23 13:25:23;;;;;;;;;0.00;0.00;;;;;;;;5001655;28;45421;-96
2023/08/23 13:27:48;;;;;;;;;1.67;1.67;;;;;;;;4997704;28;45500;-95
2023/08/23 13:30:13;;;;;;;;;1.67;1.67;;;;;;;;5003615;28;45377;-95
2023/08/23 13:32:39;;;;;;;;;1.00;1.00;;;;;;;;5001724;28;45214;-96
2023/08/23 13:35:04;;;;;;;;;1.00;1.00;;;;;;;;4982245;28;45442;-96
2023/08/23 13:37:29;;;;;;;;;1.00;1.00;;;;;;;;5000567;28;45235;-96
2023/08/23 13:39:54;;;;;;;;;0.33;0.33;;;;;;;;4999420;28;46362;-96
2023/08/23 13:42:20;;;;;;;;;1.67;1.33;;;;;;;;5001019;28;45279;-96
2023/08/23 13:44:45;;;;;;;;;2.00;2.00;;;;;;;;5002844;28;45285;-96
2023/08/23 13:47:10;;;;;;;;;1.33;1.33;;;;;;;;4999479;28;45268;-96
2023/08/23 13:49:39;;;;;;;;;1.00;1.00;;;;;;;;4995144;28;45536;-96
2023/08/23 13:52:09;;;;;;;;;2.00;2.00;;;;;;;;4999253;28;45388;-96
2023/08/23 13:54:34;;;;;;;;;1.00;1.00;;;;;;;;5001892;28;45704;-95
2023/08/23 13:56:59;;;;;;;;;2.00;2.00;;;;;;;;5000937;28;45444;-96
2023/08/23 13:59:25;;;;;;;;;1.00;1.00;;;;;;;;4979472;28;47088;-93
2023/08/23 14:01:50;;;;;;;;;1.00;1.00;;;;;;;;4991885;28;45287;-95
2023/08/23 14:12:26;;;;;;;;;1.00;1.00;;;;;;;;2038416;22;45417;-96
2023/08/23 14:14:52;;;;;;;;;1.33;1.33;;;;;;;;5020469;28;45340;-96
2023/08/23 14:17:17;;;;;;;;;1.33;1.33;;;;;;;;5004976;28;45427;-96
2023/08/23 14:19:43;;;;;;;;;2.33;2.33;;;;;;;;5002350;28;46020;-96
2023/08/23 14:22:08;;;;;;;;;2.00;2.00;;;;;;;;4970685;28;45424;-96
2023/08/23 14:24:34;;;;;;;;;1.00;1.00;;;;;;;;4977446;28;45275;-96
2023/08/23 14:26:59;;;;;;;;;2.00;2.00;;;;;;;;4982046;28;45516;-96
2023/08/23 14:29:24;;;;;;;;;1.00;1.00;;;;;;;;4975849;28;47904;-96
2023/08/23 14:31:49;;;;;;;;;1.00;1.00;;;;;;;;4978279;28;45360;-96
2023/08/23 14:34:15;;;;;;;;;2.00;2.00;;;;;;;;4998593;28;45242;-96
2023/08/23 14:36:40;;;;;;;;;3.00;2.00;;;;;;;;4981862;28;45396;-96
2023/08/23 14:39:06;;;;;;;;;2.00;2.00;;;;;;;;4970164;28;47461;-96
2023/08/23 14:41:31;;;;;;;;;1.33;1.33;;;;;;;;4975479;28;45211;-96
2023/08/23 14:43:56;;;;;;;;;2.00;2.00;;;;;;;;4985350;28;45425;-96
2023/08/23 14:46:22;;;;;;;;;2.00;2.00;;;;;;;;4979241;28;45931;-96
2023/08/23 14:48:47;;;;;;;;;1.33;1.33;;;;;;;;4979583;28;46327;-96
2023/08/23 14:51:12;;;;;;;;;1.67;1.67;;;;;;;;4996349;28;45385;-96
2023/08/23 14:53:37;;;;;;;;;2.00;2.00;;;;;;;;4978791;28;45341;-96
2023/08/23 14:56:03;;;;;;;;;1.00;1.00;;;;;;;;4998112;28;45410;-96
2023/08/23 14:58:28;;;;;;;;;1.33;1.33;;;;;;;;4994744;28;46517;-96
2023/08/23 15:00:53;;;;;;;;;1.00;1.00;;;;;;;;4998233;28;45739;-96
2023/08/23 15:03:19;;;;;;;;;1.67;1.67;;;;;;;;5001863;28;45455;-96
2023/08/23 15:05:47;;;;;;;;;2.00;2.00;;;;;;;;5002521;28;45375;-96
2023/08/23 15:08:14;;;;;;;;;1.00;1.00;;;;;;;;5000891;28;45337;-93
2023/08/23 15:11:00;;;;;;;;;1.67;1.67;;;;;;;;4997281;28;45619;-93
2023/08/23 15:13:58;;;;;;;;;;;;;;;;;;;;;
2023/08/23 15:31:40;;;;;;;;;2.33;2.33;;;;;;;;4896774;28;46148;-94
2023/08/23 15:34:39;;;;;;;;;1.00;1.00;;;;;;;;4899468;28;45485;-95
2023/08/23 15:37:05;;;;;;;;;2.00;2.00;;;;;;;;4875625;29;45687;-95
2023/08/23 15:42:58;;;;;;;;;3.00;3.00;;;;;;;;4888664;29;45539;-91
2023/08/23 15:45:38;;;;;;;;;4.67;3.00;;;;;;;;4876533;29;45586;-94
2023/08/23 15:48:04;;;;;;;;;3.00;3.00;;;;;;;;4892851;28;47524;-95
2023/08/23 15:50:32;;;;;;;;;3.00;3.00;;;;;;;;5183237;23;45006;-96
2023/08/23 15:52:57;;;;;;;;;2.67;2.67;;;;;;;;4996569;28;45572;-95
2023/08/23 15:55:23;;;;;;;;;2.00;2.00;;;;;;;;5000012;28;45411;-95
2023/08/23 15:57:49;;;;;;;;;2.00;2.00;;;;;;;;4999917;28;45473;-95
2023/08/23 16:00:14;;;;;;;;;3.00;2.00;;;;;;;;4983746;28;45464;-95
2023/08/23 16:02:39;;;;;;;;;3.67;3.67;;;;;;;;4986294;28;46189;-96
2023/08/23 16:05:05;;;;;;;;;3.00;3.00;;;;;;;;4964052;28;45413;-95
2023/08/23 16:07:31;;;;;;;;;2.00;2.00;;;;;;;;4976704;28;45518;-96
2023/08/23 16:09:56;;;;;;;;;3.00;3.00;;;;;;;;4981121;28;45210;-95
2023/08/23 16:12:22;;;;;;;;;3.67;3.67;;;;;;;;4977307;28;47178;-95
2023/08/23 16:14:47;;;;;;;;;2.00;2.00;;;;;;;;4988211;28;45619;-95
2023/08/23 16:17:13;;;;;;;;;3.00;3.00;;;;;;;;4973925;28;45259;-95
2023/08/23 16:19:38;;;;;;;;;2.33;2.33;;;;;;;;4976820;28;45486;-96
2023/08/23 16:22:03;;;;;;;;;2.67;2.67;;;;;;;;4979987;28;45593;-96
2023/08/23 16:24:29;;;;;;;;;1.00;1.00;;;;;;;;4980589;28;45243;-95
2023/08/23 16:26:54;;;;;;;;;3.00;3.00;;;;;;;;4981471;28;45231;-95
2023/08/23 16:29:19;;;;;;;;;2.67;2.67;;;;;;;;4976052;28;45647;-95
2023/08/23 16:31:45;;;;;;;;;2.67;2.67;;;;;;;;4975371;28;45674;-95
2023/08/23 16:34:10;;;;;;;;;5.00;5.00;;;;;;;;4981778;28;45330;-95
2023/08/23 16:36:35;;;;;;;;;2.67;2.67;;;;;;;;4980454;28;45522;-96
2023/08/23 16:39:00;;;;;;;;;3.00;3.00;;;;;;;;4981364;28;45278;-95
2023/08/23 16:41:26;;;;;;;;;4.00;4.00;;;;;;;;4994118;28;46133;-96
2023/08/23 16:43:51;;;;;;;;;3.00;3.00;;;;;;;;4962297;28;45432;-95
2023/08/23 16:46:16;;;;;;;;;3.00;3.00;;;;;;;;4945498;28;45275;-94
2023/08/23 16:48:43;;;;;;;;;2.67;2.67;;;;;;;;4974092;28;45303;-95
2023/08/23 16:51:08;;;;;;;;;2.00;2.00;;;;;;;;4994867;28;47248;-94
2023/08/23 16:53:33;;;;;;;;;1.67;1.67;;;;;;;;5000599;28;45321;-95
2023/08/23 16:55:58;;;;;;;;;3.00;3.00;;;;;;;;5001229;28;45386;-95
2023/08/23 16:58:24;;;;;;;;;2.00;2.00;;;;;;;;5000116;28;45312;-96
2023/08/23 17:00:49;;;;;;;;;2.00;2.00;;;;;;;;5000196;28;45444;-96
2023/08/23 17:03:14;;;;;;;;;3.00;3.00;;;;;;;;4995592;28;46110;-94
2023/08/23 17:05:40;;;;;;;;;2.00;2.00;;;;;;;;4999319;28;45363;-96
2023/08/23 17:08:05;;;;;;;;;1.00;1.00;;;;;;;;4983172;28;45256;-95
2023/08/23 17:10:32;;;;;;;;;1.67;1.67;;;;;;;;4999946;28;45479;-95
2023/08/23 17:12:58;;;;;;;;;1.00;1.00;;;;;;;;4997039;28;45363;-95
2023/08/23 17:15:23;;;;;;;;;2.00;2.00;;;;;;;;4982148;28;45386;-95
2023/08/23 17:17:48;;;;;;;;;2.00;2.00;;;;;;;;4999857;28;45239;-95
2023/08/23 17:20:14;;;;;;;;;3.00;3.00;;;;;;;;4992327;28;45519;-95
2023/08/23 17:22:39;;;;;;;;;2.00;2.00;;;;;;;;5000844;28;45229;-95
2023/08/23 17:25:16;;;;;;;;;3.67;3.67;;;;;;;;5003490;28;45402;-96
2023/08/23 17:27:41;;;;;;;;;3.00;3.00;;;;;;;;5006238;28;45398;-95
2023/08/23 17:30:07;;;;;;;;;3.00;3.00;;;;;;;;5004107;28;45405;-95
2023/08/23 17:32:32;;;;;;;;;3.00;3.00;;;;;;;;4971374;28;45425;-95
2023/08/23 17:34:58;;;;;;;;;3.00;3.00;;;;;;;;4986661;28;45295;-90
2023/08/23 17:37:26;;;;;;;;;2.00;2.00;;;;;;;;4985145;28;45523;-96
2023/08/23 17:39:51;;;;;;;;;2.00;2.00;;;;;;;;5007922;28;46404;-92
2023/08/23 17:52:54;;;;;;;;;3.67;3.67;;;;;;;;5006509;22;45623;-96
2023/08/23 17:55:19;;;;;;;;;3.67;3.67;;;;;;;;4980043;28;45382;-94
2023/08/23 17:57:45;;;;;;;;;3.00;3.00;;;;;;;;4969995;28;45373;-94
2023/08/23 18:00:11;;;;;;;;;4.00;4.00;;;;;;;;4971264;28;47250;-94
2023/08/23 18:02:36;;;;;;;;;3.33;3.33;;;;;;;;4983869;28;45412;-94
2023/08/23 18:05:01;;;;;;;;;3.00;3.00;;;;;;;;4982300;28;45270;-94
2023/08/23 18:07:26;;;;;;;;;2.00;2.00;;;;;;;;4983908;28;45211;-94
2023/08/23 18:09:59;;;;;;;;;2.00;2.00;;;;;;;;4965176;28;47292;-93
2023/08/23 18:12:24;;;;;;;;;2.00;2.00;;;;;;;;4985425;28;45417;-93
2023/08/23 18:14:58;;;;;;;;;3.33;3.33;;;;;;;;4989892;28;45222;-96
2023/08/23 18:17:24;;;;;;;;;3.00;3.00;;;;;;;;4990957;28;45323;-96
2023/08/23 18:19:49;;;;;;;;;4.00;4.00;;;;;;;;5345833;22;45844;-96
2023/08/23 18:22:14;;;;;;;;;2.33;2.33;;;;;;;;4997513;28;45413;-96
2023/08/23 18:24:42;;;;;;;;;3.67;3.67;;;;;;;;4995639;28;45443;-96
2023/08/23 18:27:07;;;;;;;;;3.33;3.33;;;;;;;;4992293;28;45275;-96
2023/08/23 18:29:53;;;;;;;;;3.00;3.00;;;;;;;;4995371;28;47060;-95
2023/08/23 18:32:23;;;;;;;;;3.00;3.00;;;;;;;;4991352;28;45673;-93
2023/08/23 18:44:12;;;;;;;;;;;;;;;;;;;;;
2023/08/23 18:46:38;;;;;;;;;4.33;4.33;;;;;;;;5020355;28;67278;-93
2023/08/23 18:49:27;;;;;;;;;3.00;3.00;;;;;;;;5001204;28;45378;-96
2023/08/23 18:51:53;;;;;;;;;3.33;3.33;;;;;;;;4910655;28;45574;-92
2023/08/23 19:13:54;;;;;;;;;7.00;6.00;;;;;;;;4971898;28;46863;-93
2023/08/23 19:24:06;;;;;;;;;5.00;5.00;;;;;;;;5725812;22;45970;-90
2023/08/23 19:44:39;;;;;;;;;5.33;5.33;;;;;;;;4986573;28;45701;-96
2023/08/23 19:50:02;;;;;;;;;5.00;5.00;;;;;;;;5738013;22;46042;-96
2023/08/23 20:36:25;;;;;;;;;4.33;4.33;;;;;;;;5206139;22;45949;-95
2023/08/23 20:51:59;;;;;;;;;4.00;4.00;;;;;;;;4994154;28;45392;-96
2023/08/23 20:54:29;;;;;;;;;5.00;5.00;;;;;;;;4994549;28;45197;-96
2023/08/23 20:56:54;;;;;;;;;5.00;5.00;;;;;;;;5000929;28;46115;-95
2023/08/23 21:02:43;;;;;;;;;;;;;;;;;;;;;
2023/08/23 21:05:07;;;;;;;;;5.00;5.00;;;;;;;;5204800;22;45282;-96
2023/08/23 22:02:21;;;;;;;;;5.33;5.33;;;;;;;;5344943;22;45407;-96
2023/08/23 22:04:49;;;;;;;;;5.33;5.33;;;;;;;;5005517;28;45457;-96
2023/08/23 22:07:17;;;;;;;;;4.00;4.00;;;;;;;;5022158;28;45149;-96
2023/08/23 22:09:44;;;;;;;;;6.00;6.00;;;;;;;;4995180;28;47178;-96
2023/08/23 22:12:10;;;;;;;;;5.00;5.00;;;;;;;;4984786;28;45365;-96
2023/08/23 22:14:38;;;;;;;;;4.00;4.00;;;;;;;;4985890;28;45309;-96
2023/08/23 22:17:03;;;;;;;;;7.67;6.00;;;;;;;;5002366;28;45449;-96
2023/08/23 22:19:31;;;;;;;;;3.33;3.33;;;;;;;;5004260;28;46087;-96
2023/08/23 22:21:57;;;;;;;;;6.00;6.00;;;;;;;;4978200;28;45303;-96
2023/08/23 22:24:29;;;;;;;;;5.00;5.00;;;;;;;;5003292;28;45571;-96
2023/08/23 22:27:05;;;;;;;;;7.00;7.00;;;;;;;;4981935;28;45720;-96
2023/08/23 22:29:30;;;;;;;;;9.00;8.00;;;;;;;;4985374;28;46161;-96
2023/08/23 22:32:06;;;;;;;;;6.00;6.00;;;;;;;;4979478;28;45263;-96
2023/08/23 23:15:03;;;;;;;;;;;;;;;;;;;;;
2023/08/23 23:17:51;;;;;;;;;5.00;5.00;;;;;;;;5006958;28;72616;-96
